Time;durP1;ratioP1;P1;durP2;ratioP2;P2;SDS_P1;SDS_P2;PMS_P1;PMS_P2;Temp;Humidity;BMP_temperature;BMP_pressure;BME280_temperature;BME280_humidity;BME280_pressure;Samples;Min_cycle;Max_cycle;Signal;HPM_P1;HPM_P2
2022/12/22 03:27:16;;;;;;;50.30;19.42;;;;;;;;;;5056000;28;20043;-66
2022/12/22 03:29:44;;;;;;;48.28;19.13;;;;;;;;;;5055922;28;20372;-66
2022/12/22 03:32:11;;;;;;;45.92;18.27;;;;;;;;;;5055697;28;20053;-66
2022/12/22 03:34:38;;;;;;;46.15;16.63;;;;;;;;;;5055834;28;20044;-66
2022/12/22 03:37:06;;;;;;;44.55;16.17;;;;;;;;;;5054857;28;20067;-66
2022/12/22 03:39:33;;;;;;;44.78;17.75;;;;;;;;;;5055423;28;20087;-66
2022/12/22 03:47:33;;;;;;;47.35;16.48;;;;;;;;;;5055596;28;20041;-66
2022/12/22 03:50:00;;;;;;;46.83;16.88;;;;;;;;;;5055565;28;20395;-66
2022/12/22 03:52:28;;;;;;;46.40;16.73;;;;;;;;;;5055526;28;20094;-66
2022/12/22 03:54:55;;;;;;;45.88;17.67;;;;;;;;;;5055554;28;20047;-66
2022/12/22 03:57:23;;;;;;;46.38;17.23;;;;;;;;;;5055371;28;20056;-66
2022/12/22 03:59:50;;;;;;;58.70;18.13;;;;;;;;;;5055125;28;20047;-66
2022/12/22 04:02:18;;;;;;;49.20;17.00;;;;;;;;;;5055164;28;20491;-66
2022/12/22 04:04:45;;;;;;;45.78;17.77;;;;;;;;;;5054916;28;20182;-66
2022/12/22 04:07:13;;;;;;;48.85;18.08;;;;;;;;;;5053796;28;20056;-66
2022/12/22 04:12:53;;;;;;;54.25;19.15;;;;;;;;;;5053879;28;20049;-66
2022/12/22 04:15:14;;;;;;;56.30;18.52;;;;;;;;;;5053799;28;20072;-66
2022/12/22 04:17:41;;;;;;;197.25;45.85;;;;;;;;;;5054746;28;20052;-66
2022/12/22 04:20:09;;;;;;;163.40;39.13;;;;;;;;;;5055182;28;20056;-66
2022/12/22 04:22:36;;;;;;;72.35;22.63;;;;;;;;;;5054961;28;20037;-66
2022/12/22 04:25:04;;;;;;;88.57;25.67;;;;;;;;;;5054983;28;20044;-66
2022/12/22 04:27:32;;;;;;;63.03;20.58;;;;;;;;;;5054891;28;20390;-66
2022/12/22 04:29:59;;;;;;;55.28;19.65;;;;;;;;;;5054489;28;20051;-66
2022/12/22 04:32:26;;;;;;;50.25;17.80;;;;;;;;;;5054698;28;20501;-66
2022/12/22 04:34:54;;;;;;;45.90;17.08;;;;;;;;;;5054631;28;20034;-66
2022/12/22 04:37:21;;;;;;;53.45;18.33;;;;;;;;;;5054458;28;20106;-66
2022/12/22 04:39:49;;;;;;;47.92;17.50;;;;;;;;;;5054531;28;20442;-66
2022/12/22 04:42:16;;;;;;;53.90;18.20;;;;;;;;;;5054356;28;20052;-66
2022/12/22 04:44:44;;;;;;;61.25;19.02;;;;;;;;;;5054497;28;20692;-66
2022/12/22 04:47:11;;;;;;;56.83;20.02;;;;;;;;;;5053144;28;20076;-66
2022/12/22 04:49:39;;;;;;;60.88;20.70;;;;;;;;;;5054208;28;20045;-66
2022/12/22 04:52:06;;;;;;;52.67;19.98;;;;;;;;;;5034348;28;20491;-66
2022/12/22 04:54:34;;;;;;;57.45;20.77;;;;;;;;;;5051852;28;20048;-66
2022/12/22 04:57:01;;;;;;;59.53;20.30;;;;;;;;;;5054207;28;20037;-66
2022/12/22 04:59:29;;;;;;;56.25;20.85;;;;;;;;;;5054111;28;20041;-66
2022/12/22 05:01:57;;;;;;;55.80;20.58;;;;;;;;;;5054187;28;20072;-66
2022/12/22 05:04:25;;;;;;;53.28;18.88;;;;;;;;;;5054403;28;20372;-66
2022/12/22 05:06:52;;;;;;;56.53;20.05;;;;;;;;;;5054040;28;20048;-66
2022/12/22 05:09:19;;;;;;;54.58;18.80;;;;;;;;;;5054072;28;20090;-66
2022/12/22 05:11:47;;;;;;;47.10;17.98;;;;;;;;;;5053882;28;20041;-67
2022/12/22 05:14:14;;;;;;;45.92;18.17;;;;;;;;;;5052583;28;20045;-66
2022/12/22 05:16:42;;;;;;;49.08;18.02;;;;;;;;;;5053760;28;20697;-65
2022/12/22 05:19:09;;;;;;;42.58;15.93;;;;;;;;;;5052615;28;20056;-65
2022/12/22 05:21:37;;;;;;;47.58;17.08;;;;;;;;;;5053578;28;20059;-67
2022/12/22 05:24:05;;;;;;;44.72;15.55;;;;;;;;;;5053558;28;20098;-66
2022/12/22 05:26:32;;;;;;;47.75;16.38;;;;;;;;;;5053164;28;20063;-66
2022/12/22 05:29:00;;;;;;;46.05;17.48;;;;;;;;;;5051659;28;20041;-66
2022/12/22 05:31:27;;;;;;;45.83;16.80;;;;;;;;;;5052958;28;20468;-66
2022/12/22 05:33:55;;;;;;;41.80;17.38;;;;;;;;;;5053328;28;20065;-67
2022/12/22 05:36:22;;;;;;;42.45;15.07;;;;;;;;;;5052582;28;20624;-66
2022/12/22 05:38:50;;;;;;;43.75;16.45;;;;;;;;;;5052914;28;20115;-66
2022/12/22 05:41:17;;;;;;;40.20;15.65;;;;;;;;;;5053169;28;20075;-66
2022/12/22 05:43:45;;;;;;;39.10;15.45;;;;;;;;;;5051663;28;20045;-66
2022/12/22 05:46:12;;;;;;;38.50;15.05;;;;;;;;;;5051213;28;20049;-66
2022/12/22 05:48:40;;;;;;;36.83;13.95;;;;;;;;;;5051296;28;20049;-66
2022/12/22 05:51:08;;;;;;;41.53;15.23;;;;;;;;;;5051627;28;20549;-66
2022/12/22 05:53:36;;;;;;;40.60;15.45;;;;;;;;;;5052131;28;20041;-66
2022/12/22 05:56:04;;;;;;;42.03;15.30;;;;;;;;;;5052710;28;20405;-63
2022/12/22 05:58:31;;;;;;;41.60;15.73;;;;;;;;;;5053099;28;20091;-63
2022/12/22 06:01:00;;;;;;;37.63;13.82;;;;;;;;;;5052908;28;20056;-67
2022/12/22 06:03:28;;;;;;;36.08;14.32;;;;;;;;;;5052897;28;20043;-67
2022/12/22 06:05:56;;;;;;;38.75;14.52;;;;;;;;;;5051771;28;20037;-66
2022/12/22 06:08:24;;;;;;;37.80;14.65;;;;;;;;;;5052637;28;20499;-66
2022/12/22 06:10:55;;;;;;;39.45;15.20;;;;;;;;;;5052936;28;20053;-66
2022/12/22 06:13:23;;;;;;;41.17;15.05;;;;;;;;;;5052950;28;20041;-66
2022/12/22 06:15:51;;;;;;;42.92;15.13;;;;;;;;;;5053113;28;20033;-66
2022/12/22 06:18:18;;;;;;;42.13;15.25;;;;;;;;;;5052908;28;20052;-66
2022/12/22 06:20:46;;;;;;;42.70;15.70;;;;;;;;;;5052670;28;20060;-66
2022/12/22 06:23:14;;;;;;;38.45;15.63;;;;;;;;;;5053070;28;20434;-66
2022/12/22 06:25:41;;;;;;;45.10;15.98;;;;;;;;;;5052765;28;20098;-66
2022/12/22 06:28:08;;;;;;;40.75;15.10;;;;;;;;;;5052751;28;20091;-66
2022/12/22 06:30:36;;;;;;;40.58;15.15;;;;;;;;;;5052579;28;20055;-66
2022/12/22 06:33:04;;;;;;;35.47;13.73;;;;;;;;;;5052639;28;20041;-66
2022/12/22 06:35:31;;;;;;;38.65;14.63;;;;;;;;;;5051403;28;20399;-66
2022/12/22 06:37:59;;;;;;;42.00;15.55;;;;;;;;;;5052420;28;20114;-66
2022/12/22 06:40:26;;;;;;;44.08;15.80;;;;;;;;;;5052455;28;20033;-66
2022/12/22 06:43:08;;;;;;;43.95;15.20;;;;;;;;;;5052584;28;20041;-66
2022/12/22 06:45:38;;;;;;;41.83;15.27;;;;;;;;;;5052831;28;20044;-66
2022/12/22 06:48:06;;;;;;;38.20;14.23;;;;;;;;;;5052601;28;20040;-66
2022/12/22 06:50:34;;;;;;;39.28;14.73;;;;;;;;;;5052668;28;20041;-66
2022/12/22 06:53:02;;;;;;;36.08;13.57;;;;;;;;;;5052427;28;20499;-65
2022/12/22 06:55:30;;;;;;;46.95;15.85;;;;;;;;;;5052367;28;20068;-66
2022/12/22 06:57:57;;;;;;;44.88;15.88;;;;;;;;;;5050922;28;20073;-66
2022/12/22 07:00:25;;;;;;;47.50;16.17;;;;;;;;;;5052229;28;20068;-66
2022/12/22 07:02:52;;;;;;;43.72;14.93;;;;;;;;;;5052354;28;20048;-66
2022/12/22 07:05:20;;;;;;;38.92;14.60;;;;;;;;;;5052177;28;20068;-66
2022/12/22 07:07:47;;;;;;;40.00;15.13;;;;;;;;;;5052357;28;20041;-66
2022/12/22 07:10:15;;;;;;;44.72;15.85;;;;;;;;;;5052278;28;20048;-66
2022/12/22 07:12:42;;;;;;;45.58;17.25;;;;;;;;;;5052171;28;20045;-66
2022/12/22 07:15:10;;;;;;;46.90;15.80;;;;;;;;;;5052143;28;20128;-66
2022/12/22 07:17:40;;;;;;;49.53;17.50;;;;;;;;;;5052242;28;20092;-66
2022/12/22 07:20:08;;;;;;;49.08;17.65;;;;;;;;;;5052353;28;20045;-66
2022/12/22 07:22:35;;;;;;;55.40;18.27;;;;;;;;;;5052026;28;20041;-67
2022/12/22 07:25:03;;;;;;;47.97;16.80;;;;;;;;;;5051311;28;20368;-66
2022/12/22 07:27:30;;;;;;;49.35;17.35;;;;;;;;;;5052085;28;20507;-66
2022/12/22 07:29:58;;;;;;;47.78;17.23;;;;;;;;;;5051921;28;20041;-65
2022/12/22 07:32:25;;;;;;;42.58;16.02;;;;;;;;;;5052096;28;20071;-66
2022/12/22 07:34:52;;;;;;;47.92;15.38;;;;;;;;;;5052149;28;20442;-66
2022/12/22 07:37:22;;;;;;;41.35;16.33;;;;;;;;;;5051878;28;20400;-66
2022/12/22 07:39:49;;;;;;;41.53;16.17;;;;;;;;;;5051871;28;20045;-66
2022/12/22 07:45:03;;;;;;;40.40;16.00;;;;;;;;;;5052097;28;20349;-66
2022/12/22 07:47:30;;;;;;;40.08;15.23;;;;;;;;;;5051777;28;20463;-66
2022/12/22 07:52:48;;;;;;;41.42;15.05;;;;;;;;;;5054450;28;20479;-66
2022/12/22 07:55:15;;;;;;;38.38;15.30;;;;;;;;;;5055224;28;20041;-66
2022/12/22 07:57:43;;;;;;;38.53;14.35;;;;;;;;;;5054166;28;20056;-66
2022/12/22 08:00:11;;;;;;;44.58;15.80;;;;;;;;;;5055252;28;20056;-66
2022/12/22 08:02:40;;;;;;;45.63;16.90;;;;;;;;;;5055063;28;20188;-66
2022/12/22 08:05:08;;;;;;;48.83;16.77;;;;;;;;;;5054947;28;20403;-66
2022/12/22 08:07:36;;;;;;;42.42;15.38;;;;;;;;;;5054827;28;20052;-66
2022/12/22 08:10:03;;;;;;;43.13;15.63;;;;;;;;;;5055178;28;20045;-66
2022/12/22 08:12:31;;;;;;;44.38;16.73;;;;;;;;;;5055133;28;20045;-66
2022/12/22 08:14:59;;;;;;;56.35;20.67;;;;;;;;;;5055438;28;20037;-66
2022/12/22 08:17:27;;;;;;;46.05;16.98;;;;;;;;;;5055128;28;20041;-66
2022/12/22 08:19:54;;;;;;;38.95;15.95;;;;;;;;;;5055029;28;20495;-66
2022/12/22 08:22:22;;;;;;;37.33;15.30;;;;;;;;;;5055170;28;20065;-66
2022/12/22 08:24:53;;;;;;;52.22;17.17;;;;;;;;;;5055111;28;20040;-66
2022/12/22 08:27:32;;;;;;;41.45;15.15;;;;;;;;;;5054709;28;20150;-66
2022/12/22 08:30:00;;;;;;;52.22;18.30;;;;;;;;;;5054578;28;20306;-65
2022/12/22 08:32:28;;;;;;;50.00;17.80;;;;;;;;;;5054706;28;20088;-66
2022/12/22 08:34:55;;;;;;;50.03;18.10;;;;;;;;;;5054729;28;20136;-66
2022/12/22 08:37:24;;;;;;;48.58;18.58;;;;;;;;;;5054555;28;20538;-66
2022/12/22 08:39:54;;;;;;;52.90;18.42;;;;;;;;;;5054867;28;20120;-66
2022/12/22 08:42:22;;;;;;;50.60;17.80;;;;;;;;;;5054451;28;20144;-66
2022/12/22 08:44:52;;;;;;;52.72;17.67;;;;;;;;;;5054600;28;20080;-67
2022/12/22 08:47:20;;;;;;;54.40;18.20;;;;;;;;;;5054312;28;20495;-66
2022/12/22 08:49:48;;;;;;;53.13;19.08;;;;;;;;;;5054290;28;20067;-66
2022/12/22 08:52:16;;;;;;;48.65;17.35;;;;;;;;;;5054673;28;20120;-66
2022/12/22 08:54:45;;;;;;;45.95;17.67;;;;;;;;;;5054347;28;20033;-66
2022/12/22 08:57:13;;;;;;;47.85;18.13;;;;;;;;;;5054140;28;20064;-66
2022/12/22 08:59:40;;;;;;;54.38;18.13;;;;;;;;;;5054204;28;20045;-66
2022/12/22 09:02:08;;;;;;;45.95;17.27;;;;;;;;;;5054033;28;20055;-66
2022/12/22 09:04:36;;;;;;;53.55;19.42;;;;;;;;;;5053920;28;20037;-66
2022/12/22 09:07:04;;;;;;;51.17;18.70;;;;;;;;;;5054130;28;20083;-66
2022/12/22 09:09:33;;;;;;;48.35;17.98;;;;;;;;;;5054079;28;20087;-66
2022/12/22 09:12:01;;;;;;;57.97;20.40;;;;;;;;;;5053961;28;20044;-66
2022/12/22 09:14:29;;;;;;;52.40;20.40;;;;;;;;;;5054300;28;20102;-66
2022/12/22 09:16:57;;;;;;;45.40;18.27;;;;;;;;;;5053989;28;20045;-66
2022/12/22 09:19:24;;;;;;;43.22;17.50;;;;;;;;;;5053783;28;20045;-66
2022/12/22 09:21:52;;;;;;;50.00;19.42;;;;;;;;;;5053656;28;20064;-66
2022/12/22 09:24:19;;;;;;;39.85;15.90;;;;;;;;;;5053746;28;20045;-66
2022/12/22 09:26:47;;;;;;;40.88;16.20;;;;;;;;;;5053638;28;20052;-66
2022/12/22 09:29:14;;;;;;;43.88;15.88;;;;;;;;;;5053648;28;20037;-66
2022/12/22 09:31:42;;;;;;;47.00;18.08;;;;;;;;;;5053456;28;20088;-66
2022/12/22 09:34:10;;;;;;;47.30;16.98;;;;;;;;;;5053793;28;20041;-66
2022/12/22 09:36:44;;;;;;;57.30;22.42;;;;;;;;;;5053578;28;20059;-66
2022/12/22 09:39:11;;;;;;;48.97;19.40;;;;;;;;;;5053467;28;20041;-66
2022/12/22 09:41:45;;;;;;;49.90;18.70;;;;;;;;;;5053517;28;20041;-67
2022/12/22 09:44:16;;;;;;;48.88;17.52;;;;;;;;;;5053481;28;20045;-65
2022/12/22 09:46:43;;;;;;;48.30;19.23;;;;;;;;;;5053176;28;20045;-66
2022/12/22 09:49:14;;;;;;;50.47;19.25;;;;;;;;;;5053292;28;20094;-66
2022/12/22 09:51:43;;;;;;;50.33;18.40;;;;;;;;;;5053251;28;20491;-67
2022/12/22 09:54:11;;;;;;;49.13;18.52;;;;;;;;;;5053267;28;20041;-67
2022/12/22 09:56:38;;;;;;;54.00;18.85;;;;;;;;;;5053030;28;20037;-66
2022/12/22 09:59:16;;;;;;;48.97;19.25;;;;;;;;;;5053034;28;20047;-66
2022/12/22 10:01:55;;;;;;;46.08;17.35;;;;;;;;;;5053030;28;20041;-66
2022/12/22 10:04:25;;;;;;;51.78;19.65;;;;;;;;;;5053048;28;20044;-66
2022/12/22 10:07:02;;;;;;;53.30;20.60;;;;;;;;;;5053006;28;20041;-66
2022/12/22 10:09:31;;;;;;;43.42;17.10;;;;;;;;;;5052974;28;20041;-67
2022/12/22 10:12:19;;;;;;;42.00;16.17;;;;;;;;;;5052406;28;20045;-66
2022/12/22 10:14:48;;;;;;;37.22;15.38;;;;;;;;;;5052967;28;20097;-67
2022/12/22 10:17:22;;;;;;;40.50;16.52;;;;;;;;;;5051703;28;20428;-65
2022/12/22 10:19:51;;;;;;;47.42;19.15;;;;;;;;;;5052915;28;20098;-64
2022/12/22 10:22:27;;;;;;;41.88;17.20;;;;;;;;;;5052940;28;20037;-65
2022/12/22 10:24:55;;;;;;;49.75;18.42;;;;;;;;;;5052846;28;20095;-65
2022/12/22 10:27:24;;;;;;;55.00;19.25;;;;;;;;;;5052722;28;20091;-65
2022/12/22 10:30:15;;;;;;;51.20;18.40;;;;;;;;;;5052891;28;20044;-65
2022/12/22 10:32:43;;;;;;;48.85;18.17;;;;;;;;;;5053090;28;20045;-65
2022/12/22 10:35:13;;;;;;;54.67;20.05;;;;;;;;;;5051418;28;20092;-65
2022/12/22 10:37:40;;;;;;;49.30;19.27;;;;;;;;;;5052489;28;20083;-66
2022/12/22 10:40:20;;;;;;;41.72;17.42;;;;;;;;;;5052416;28;20437;-66
2022/12/22 10:42:53;;;;;;;49.00;18.83;;;;;;;;;;5051072;28;20426;-66
2022/12/22 10:45:25;;;;;;;47.58;17.60;;;;;;;;;;5052346;28;20503;-66
2022/12/22 10:47:54;;;;;;;46.78;18.73;;;;;;;;;;5052296;28;20040;-66
2022/12/22 10:50:22;;;;;;;48.67;17.83;;;;;;;;;;5052408;28;20130;-66
2022/12/22 10:52:54;;;;;;;49.38;19.88;;;;;;;;;;5052688;28;20049;-66
2022/12/22 10:55:22;;;;;;;46.85;18.65;;;;;;;;;;5052453;28;20041;-66
2022/12/22 10:57:49;;;;;;;46.00;18.02;;;;;;;;;;5052256;28;20049;-66
2022/12/22 11:00:30;;;;;;;55.33;18.17;;;;;;;;;;5052333;28;20048;-66
2022/12/22 11:02:59;;;;;;;50.38;19.20;;;;;;;;;;5052113;28;20076;-66
2022/12/22 11:05:28;;;;;;;46.85;19.38;;;;;;;;;;5052337;28;20483;-65
2022/12/22 11:07:56;;;;;;;48.08;19.30;;;;;;;;;;5052236;28;20095;-65
2022/12/22 11:10:29;;;;;;;48.15;19.20;;;;;;;;;;5052572;28;20041;-65
2022/12/22 11:12:58;;;;;;;51.35;20.50;;;;;;;;;;5052546;28;20063;-65
2022/12/22 11:15:31;;;;;;;44.95;18.50;;;;;;;;;;5052198;28;20091;-65
2022/12/22 11:17:59;;;;;;;46.70;20.00;;;;;;;;;;5052355;28;20049;-66
2022/12/22 11:20:37;;;;;;;50.03;20.67;;;;;;;;;;5051014;28;20045;-65
2022/12/22 11:23:13;;;;;;;45.08;19.65;;;;;;;;;;5052179;28;20087;-66
2022/12/22 11:25:59;;;;;;;45.00;18.98;;;;;;;;;;5055865;28;20586;-67
2022/12/22 11:28:47;;;;;;;48.30;18.33;;;;;;;;;;5056111;28;20529;-66
2022/12/22 11:31:36;;;;;;;48.97;18.95;;;;;;;;;;5055791;28;20128;-66
2022/12/22 11:34:16;;;;;;;46.75;18.08;;;;;;;;;;5055906;28;20379;-66
2022/12/22 11:36:56;;;;;;;52.25;19.40;;;;;;;;;;5055887;28;20087;-66
2022/12/22 11:39:37;;;;;;;43.88;18.60;;;;;;;;;;5056144;28;20045;-66
2022/12/22 11:42:14;;;;;;;45.33;20.08;;;;;;;;;;5055899;28;20041;-66
2022/12/22 11:44:41;;;;;;;48.55;18.52;;;;;;;;;;5055645;28;20064;-66
2022/12/22 11:47:18;;;;;;;47.83;19.00;;;;;;;;;;5054319;28;20037;-66
2022/12/22 11:50:17;;;;;;;45.33;19.23;;;;;;;;;;5055494;28;20045;-66
2022/12/22 11:53:05;;;;;;;49.30;19.92;;;;;;;;;;5038895;28;20056;-66
2022/12/22 11:55:37;;;;;;;45.83;18.42;;;;;;;;;;5055482;28;20079;-66
2022/12/22 11:58:15;;;;;;;48.20;19.05;;;;;;;;;;5055298;28;20075;-66
2022/12/22 12:00:46;;;;;;;45.88;18.90;;;;;;;;;;5055359;28;20495;-66
2022/12/22 12:03:37;;;;;;;48.95;18.67;;;;;;;;;;5055146;28;20068;-66
2022/12/22 12:06:23;;;;;;;45.42;19.00;;;;;;;;;;5055300;28;20044;-66
2022/12/22 12:09:01;;;;;;;50.33;20.85;;;;;;;;;;5055242;28;20116;-66
2022/12/22 12:11:31;;;;;;;43.90;18.98;;;;;;;;;;5055107;28;20120;-66
2022/12/22 12:13:59;;;;;;;51.55;21.23;;;;;;;;;;5055298;28;20037;-66
2022/12/22 12:16:33;;;;;;;45.78;18.83;;;;;;;;;;5055036;28;20049;-65
2022/12/22 12:19:19;;;;;;;45.37;19.23;;;;;;;;;;5055078;28;20065;-67
2022/12/22 12:21:57;;;;;;;47.70;20.25;;;;;;;;;;5054807;28;20558;-66
2022/12/22 12:24:34;;;;;;;45.88;19.65;;;;;;;;;;5053835;28;20092;-66
2022/12/22 12:27:08;;;;;;;50.60;20.67;;;;;;;;;;5053665;28;20041;-66
2022/12/22 12:29:49;;;;;;;43.78;18.65;;;;;;;;;;5054859;28;20491;-66
2022/12/22 12:32:43;;;;;;;181.98;41.55;;;;;;;;;;5053670;28;20048;-66
2022/12/22 12:35:21;;;;;;;66.10;24.38;;;;;;;;;;5054210;28;20037;-66
2022/12/22 12:37:52;;;;;;;438.17;101.15;;;;;;;;;;5054695;28;20512;-66
2022/12/22 12:40:22;;;;;;;60.72;25.70;;;;;;;;;;5055046;28;20061;-66
2022/12/22 12:42:50;;;;;;;229.75;83.78;;;;;;;;;;5054760;28;20055;-66
2022/12/22 12:45:33;;;;;;;120.13;40.60;;;;;;;;;;5054403;28;20391;-67
2022/12/22 12:48:19;;;;;;;83.55;29.77;;;;;;;;;;5054480;28;20044;-67
2022/12/22 12:50:50;;;;;;;59.33;23.55;;;;;;;;;;5054478;28;20447;-66
2022/12/22 12:53:18;;;;;;;31.50;15.55;;;;;;;;;;5054479;28;20495;-66
2022/12/22 12:55:46;;;;;;;43.20;19.83;;;;;;;;;;5054211;28;20075;-66
2022/12/22 12:58:33;;;;;;;36.83;16.92;;;;;;;;;;5053151;28;20493;-66
2022/12/22 13:01:01;;;;;;;39.92;17.27;;;;;;;;;;5054100;28;20041;-66
2022/12/22 13:03:29;;;;;;;31.00;15.25;;;;;;;;;;5054057;28;20570;-66
2022/12/22 13:06:35;;;;;;;37.33;17.52;;;;;;;;;;5053942;28;20032;-66
2022/12/22 13:09:05;;;;;;;33.47;15.80;;;;;;;;;;5054120;28;20041;-67
2022/12/22 13:11:55;;;;;;;34.17;15.82;;;;;;;;;;5052571;28;20051;-67
2022/12/22 13:14:56;;;;;;;35.88;16.45;;;;;;;;;;5054100;28;20041;-67
2022/12/22 13:17:40;;;;;;;38.83;18.80;;;;;;;;;;5052811;28;20071;-67
2022/12/22 13:20:14;;;;;;;37.10;16.75;;;;;;;;;;5053824;28;20041;-67
2022/12/22 13:22:43;;;;;;;42.50;19.23;;;;;;;;;;5053887;28;20457;-65
2022/12/22 13:25:17;;;;;;;49.13;22.02;;;;;;;;;;5053678;28;20526;-65
2022/12/22 13:27:44;;;;;;;40.88;19.05;;;;;;;;;;5053734;28;20039;-65
2022/12/22 13:30:17;;;;;;;43.72;19.58;;;;;;;;;;5053525;28;20077;-65
2022/12/22 13:32:46;;;;;;;41.42;19.08;;;;;;;;;;5053702;28;20028;-66
2022/12/22 13:35:13;;;;;;;44.88;20.77;;;;;;;;;;5053876;28;20123;-66
2022/12/22 13:37:59;;;;;;;42.75;18.75;;;;;;;;;;5053894;28;20041;-66
2022/12/22 13:40:32;;;;;;;44.92;20.10;;;;;;;;;;5052357;28;20041;-66
2022/12/22 13:43:05;;;;;;;43.35;20.00;;;;;;;;;;5053439;28;20043;-66
2022/12/22 13:45:32;;;;;;;48.35;20.23;;;;;;;;;;5053467;28;20040;-66
2022/12/22 13:48:01;;;;;;;40.78;18.02;;;;;;;;;;5052325;28;20041;-66
2022/12/22 13:50:32;;;;;;;38.40;16.98;;;;;;;;;;5053206;28;20552;-65
2022/12/22 13:53:01;;;;;;;45.22;18.88;;;;;;;;;;5053697;28;20123;-65
2022/12/22 13:55:30;;;;;;;39.83;18.17;;;;;;;;;;5053257;28;20434;-66
2022/12/22 13:58:03;;;;;;;42.45;18.15;;;;;;;;;;5053182;28;20051;-66
2022/12/22 14:00:31;;;;;;;43.15;18.17;;;;;;;;;;5051925;28;20041;-66
2022/12/22 14:02:58;;;;;;;38.80;17.73;;;;;;;;;;5053136;28;20041;-66
2022/12/22 14:05:30;;;;;;;39.63;17.48;;;;;;;;;;5053120;28;20491;-66
2022/12/22 14:07:58;;;;;;;39.15;18.35;;;;;;;;;;5052996;28;20116;-67
2022/12/22 14:10:38;;;;;;;37.17;15.60;;;;;;;;;;5053119;28;20041;-67
2022/12/22 14:13:07;;;;;;;35.30;16.40;;;;;;;;;;5053090;28;20037;-67
2022/12/22 14:15:34;;;;;;;41.13;17.58;;;;;;;;;;5051668;28;20051;-67
2022/12/22 14:18:02;;;;;;;42.90;19.17;;;;;;;;;;5052881;28;20049;-67
2022/12/22 14:20:38;;;;;;;40.38;18.55;;;;;;;;;;5051287;28;20075;-67
2022/12/22 14:23:08;;;;;;;46.28;20.40;;;;;;;;;;5052491;28;20509;-67
2022/12/22 14:25:40;;;;;;;45.80;21.42;;;;;;;;;;5052751;28;20116;-67
2022/12/22 14:28:33;;;;;;;54.58;23.52;;;;;;;;;;5052712;28;20049;-67
2022/12/22 14:31:02;;;;;;;46.63;21.60;;;;;;;;;;5050890;28;20491;-66
2022/12/22 14:33:31;;;;;;;42.75;20.15;;;;;;;;;;5052567;28;20045;-66
2022/12/22 14:36:05;;;;;;;48.13;20.85;;;;;;;;;;5052586;28;20414;-67
2022/12/22 14:38:40;;;;;;;50.53;22.58;;;;;;;;;;5052808;28;20075;-67
2022/12/22 14:41:40;;;;;;;58.50;28.13;;;;;;;;;;5052603;28;20415;-66
2022/12/22 14:44:00;;;;;;;52.63;25.55;;;;;;;;;;5052320;28;20041;-67
2022/12/22 14:46:28;;;;;;;58.78;28.30;;;;;;;;;;5052464;28;20063;-67
2022/12/22 14:49:04;;;;;;;60.40;28.13;;;;;;;;;;5051140;28;20136;-73
2022/12/22 14:51:32;;;;;;;64.22;27.58;;;;;;;;;;5052576;28;20391;-67
2022/12/22 14:54:01;;;;;;;62.28;27.85;;;;;;;;;;5052447;28;20055;-67
2022/12/22 14:56:29;;;;;;;67.63;30.65;;;;;;;;;;5052323;28;20048;-66
2022/12/22 14:59:22;;;;;;;67.30;30.52;;;;;;;;;;5053445;28;20048;-69
2022/12/22 15:02:16;;;;;;;85.72;36.55;;;;;;;;;;5056464;28;20376;-69
2022/12/22 15:04:44;;;;;;;131.48;51.38;;;;;;;;;;5041068;28;20060;-69
2022/12/22 15:07:16;;;;;;;103.45;45.10;;;;;;;;;;5056454;28;20103;-66
2022/12/22 15:10:03;;;;;;;110.93;54.90;;;;;;;;;;5056196;28;20037;-66
2022/12/22 15:12:41;;;;;;;101.38;47.03;;;;;;;;;;5056218;28;20045;-66
2022/12/22 15:15:17;;;;;;;113.38;53.65;;;;;;;;;;5054928;28;20044;-66
2022/12/22 15:17:52;;;;;;;145.10;73.78;;;;;;;;;;5056091;28;20049;-67
2022/12/22 15:20:24;;;;;;;156.35;76.60;;;;;;;;;;5056023;28;20041;-66
2022/12/22 15:22:51;;;;;;;107.47;50.97;;;;;;;;;;5055979;28;20143;-67
2022/12/22 15:25:23;;;;;;;90.65;41.83;;;;;;;;;;5054828;28;20045;-65
2022/12/22 15:27:51;;;;;;;86.50;43.90;;;;;;;;;;5043876;28;20045;-65
2022/12/22 15:30:20;;;;;;;85.20;43.38;;;;;;;;;;5052388;28;20045;-66
2022/12/22 15:32:53;;;;;;;96.53;46.90;;;;;;;;;;5047692;28;20073;-67
2022/12/22 15:35:23;;;;;;;96.05;48.08;;;;;;;;;;5035655;28;20116;-64
2022/12/22 15:37:51;;;;;;;100.82;46.97;;;;;;;;;;5048331;28;20056;-64
2022/12/22 15:40:20;;;;;;;202.75;94.85;;;;;;;;;;5037871;28;20129;-66
2022/12/22 15:42:48;;;;;;;251.63;108.82;;;;;;;;;;5035296;28;20041;-65
2022/12/22 15:45:16;;;;;;;306.27;129.32;;;;;;;;;;5069979;28;20054;-65
2022/12/22 15:47:47;;;;;;;258.92;114.72;;;;;;;;;;5055487;28;20048;-65
2022/12/22 15:50:16;;;;;;;209.27;98.03;;;;;;;;;;5053668;28;20171;-65
2022/12/22 15:52:46;;;;;;;133.30;64.25;;;;;;;;;;5043301;28;20071;-65
2022/12/22 15:55:15;;;;;;;181.98;82.55;;;;;;;;;;5044620;28;20041;-62
2022/12/22 15:57:43;;;;;;;180.73;88.15;;;;;;;;;;5035312;28;20049;-63
2022/12/22 16:00:12;;;;;;;165.55;83.57;;;;;;;;;;5050066;28;20037;-63
2022/12/22 16:02:39;;;;;;;134.45;70.53;;;;;;;;;;5039865;28;20475;-63
2022/12/22 16:05:07;;;;;;;116.05;60.83;;;;;;;;;;5041420;28;20041;-63
2022/12/22 16:07:35;;;;;;;112.30;60.28;;;;;;;;;;5034865;28;20085;-63
2022/12/22 16:10:04;;;;;;;123.95;64.57;;;;;;;;;;5033753;28;20484;-63
2022/12/22 16:12:33;;;;;;;71.50;37.63;;;;;;;;;;5034286;28;20050;-63
2022/12/22 16:15:01;;;;;;;86.63;41.28;;;;;;;;;;5034517;28;20052;-63
2022/12/22 16:17:28;;;;;;;88.28;40.63;;;;;;;;;;5034300;28;20079;-63
2022/12/22 16:19:56;;;;;;;91.15;39.75;;;;;;;;;;5034880;28;20432;-63
2022/12/22 16:22:29;;;;;;;97.25;42.60;;;;;;;;;;5034396;28;20072;-63
2022/12/22 16:24:56;;;;;;;82.50;39.35;;;;;;;;;;5041170;28;20076;-63
2022/12/22 16:27:24;;;;;;;71.72;35.10;;;;;;;;;;5038685;28;20045;-63
2022/12/22 16:29:53;;;;;;;66.53;31.25;;;;;;;;;;5032967;28;21132;-64
2022/12/22 16:32:25;;;;;;;76.70;32.83;;;;;;;;;;5034357;28;20044;-64
2022/12/22 16:34:53;;;;;;;83.13;36.72;;;;;;;;;;5038854;28;20029;-64
2022/12/22 16:37:20;;;;;;;82.63;37.25;;;;;;;;;;5042580;28;20124;-64
2022/12/22 16:39:48;;;;;;;125.15;50.33;;;;;;;;;;5050548;28;20041;-64
2022/12/22 16:42:17;;;;;;;104.97;43.78;;;;;;;;;;5048227;28;20045;-64
2022/12/22 16:45:03;;;;;;;71.72;32.35;;;;;;;;;;5036298;28;20045;-64
2022/12/22 16:47:34;;;;;;;67.88;33.50;;;;;;;;;;5034154;28;20397;-64
2022/12/22 16:50:02;;;;;;;74.45;32.85;;;;;;;;;;5034120;28;20454;-64
2022/12/22 16:52:40;;;;;;;88.85;37.10;;;;;;;;;;5039853;28;20110;-64
2022/12/22 16:55:15;;;;;;;73.38;31.40;;;;;;;;;;5049504;28;20130;-64
2022/12/22 16:57:43;;;;;;;;;;;;;;;;;;5035879;28;20073;-64
2022/12/22 17:00:15;;;;;;;87.80;35.72;;;;;;;;;;5043650;28;20297;-63
2022/12/22 17:02:46;;;;;;;96.15;38.22;;;;;;;;;;5038903;28;20048;-63
2022/12/22 17:05:22;;;;;;;102.93;41.20;;;;;;;;;;5035650;28;20556;-63
2022/12/22 17:07:50;;;;;;;92.50;39.80;;;;;;;;;;5046662;28;20045;-63
2022/12/22 17:10:18;;;;;;;89.88;39.50;;;;;;;;;;5053170;28;20033;-64
2022/12/22 17:12:47;;;;;;;82.28;39.08;;;;;;;;;;5053827;28;20055;-63
2022/12/22 17:15:18;;;;;;;79.93;34.55;;;;;;;;;;5053573;28;20564;-64
2022/12/22 17:17:45;;;;;;;85.20;34.70;;;;;;;;;;5039345;28;20065;-63
2022/12/22 17:20:17;;;;;;;85.95;35.97;;;;;;;;;;5053301;28;20124;-64
2022/12/22 17:23:01;;;;;;;76.15;32.17;;;;;;;;;;5053096;28;20144;-64
2022/12/22 17:25:30;;;;;;;78.60;32.22;;;;;;;;;;5053247;28;20146;-64
2022/12/22 17:28:00;;;;;;;70.35;29.67;;;;;;;;;;5052272;28;20459;-64
2022/12/22 17:30:28;;;;;;;140.85;54.45;;;;;;;;;;5053046;28;20063;-63
2022/12/22 17:32:55;;;;;;;134.38;60.55;;;;;;;;;;5053086;28;20052;-62
2022/12/22 17:35:24;;;;;;;141.48;58.40;;;;;;;;;;5045506;28;20051;-62
2022/12/22 17:37:52;;;;;;;127.70;57.15;;;;;;;;;;5047313;28;20048;-66
2022/12/22 17:40:29;;;;;;;101.45;45.55;;;;;;;;;;5053110;28;20094;-64
2022/12/22 17:42:57;;;;;;;95.00;42.83;;;;;;;;;;5052733;28;20037;-63
2022/12/22 17:45:25;;;;;;;85.97;38.47;;;;;;;;;;5053139;28;20037;-63
2022/12/22 17:47:52;;;;;;;83.35;33.60;;;;;;;;;;5053238;28;20041;-62
2022/12/22 17:50:22;;;;;;;71.43;32.90;;;;;;;;;;5052888;28;20037;-63
2022/12/22 17:52:49;;;;;;;77.00;33.38;;;;;;;;;;5052917;28;20129;-64
2022/12/22 17:55:21;;;;;;;80.60;39.22;;;;;;;;;;5052710;28;20082;-63
2022/12/22 17:58:16;;;;;;;83.25;36.83;;;;;;;;;;5052840;28;20502;-63
2022/12/22 18:00:44;;;;;;;;;;;;;;;;;;5053165;28;20044;-63
2022/12/22 18:03:12;;;;;;;72.95;29.58;;;;;;;;;;5052480;28;19920;-63
2022/12/22 18:05:42;;;;;;;67.35;27.67;;;;;;;;;;5052376;28;20399;-62
2022/12/22 18:08:13;;;;;;;71.00;31.65;;;;;;;;;;5052493;28;20064;-63
2022/12/22 18:10:41;;;;;;;73.47;33.60;;;;;;;;;;5052517;28;20076;-64
2022/12/22 18:13:16;;;;;;;79.07;34.28;;;;;;;;;;5052678;28;20737;-64
2022/12/22 18:15:43;;;;;;;73.28;31.83;;;;;;;;;;5052466;28;20056;-64
2022/12/22 18:18:12;;;;;;;68.45;31.33;;;;;;;;;;5052268;28;20048;-63